Time;durP1;ratioP1;P1;durP2;ratioP2;P2;SDS_P1;SDS_P2;PMS_P1;PMS_P2;Temp;Humidity;BMP_temperature;BMP_pressure;BME280_temperature;BME280_humidity;BME280_pressure;Samples;Min_cycle;Max_cycle;Signal;HPM_P1;HPM_P2
2022/03/02 00:01:33;;;;;;;30.70;20.88;;;5.70;99.90;;;;;;4992058;28;20384;-64
2022/03/02 00:03:59;;;;;;;31.58;22.52;;;5.70;99.90;;;;;;4975501;28;20056;-65
2022/03/02 00:06:25;;;;;;;31.10;22.42;;;5.60;99.90;;;;;;4992116;28;20108;-65
2022/03/02 00:08:50;;;;;;;31.02;22.02;;;5.60;99.90;;;;;;4991550;28;20390;-65
2022/03/02 00:11:16;;;;;;;36.08;22.75;;;5.60;99.90;;;;;;4975987;28;20047;-66
2022/03/02 00:13:42;;;;;;;34.72;23.10;;;5.60;99.90;;;;;;4993254;28;20468;-65
2022/03/02 00:16:08;;;;;;;35.05;22.75;;;5.60;99.90;;;;;;4975944;28;20046;-65
2022/03/02 00:18:35;;;;;;;31.15;22.45;;;5.70;99.90;;;;;;4991751;28;20167;-63
2022/03/02 00:21:01;;;;;;;31.40;22.23;;;5.60;99.90;;;;;;4991810;28;20062;-68
2022/03/02 00:23:26;;;;;;;32.03;21.55;;;5.60;99.90;;;;;;4992046;28;20057;-64
2022/03/02 00:25:52;;;;;;;32.22;22.95;;;5.60;99.90;;;;;;4991925;28;20058;-65
2022/03/02 00:28:18;;;;;;;32.80;22.58;;;5.60;99.90;;;;;;4991253;28;20046;-66
2022/03/02 00:30:44;;;;;;;34.08;24.27;;;5.50;99.90;;;;;;4991665;28;20050;-65
2022/03/02 00:33:10;;;;;;;33.13;22.90;;;5.80;99.90;;;;;;4991089;28;20047;-66
2022/03/02 00:35:35;;;;;;;35.35;22.83;;;5.60;99.90;;;;;;4991769;28;20054;-64
2022/03/02 00:38:03;;;;;;;32.35;22.25;;;5.50;99.90;;;;;;4991781;28;20114;-65
2022/03/02 00:40:29;;;;;;;32.55;22.83;;;5.50;99.90;;;;;;4991273;28;20550;-64
2022/03/02 00:42:56;;;;;;;35.10;23.00;;;5.50;99.90;;;;;;4991692;28;20385;-65
2022/03/02 00:45:21;;;;;;;33.20;22.45;;;5.50;99.90;;;;;;4992918;28;20054;-65
2022/03/02 00:47:47;;;;;;;31.13;21.27;;;5.50;99.90;;;;;;4991611;28;20064;-65
2022/03/02 00:50:14;;;;;;;36.03;23.63;;;5.50;99.90;;;;;;4992441;28;20045;-65
2022/03/02 00:52:40;;;;;;;34.63;23.58;;;5.50;99.90;;;;;;4992620;28;20457;-66
2022/03/02 00:55:06;;;;;;;33.78;22.50;;;5.40;99.90;;;;;;4996176;28;20056;-65
2022/03/02 00:57:31;;;;;;;33.53;22.60;;;5.40;99.90;;;;;;4994896;28;20129;-64
2022/03/02 00:59:57;;;;;;;35.92;23.30;;;5.40;99.90;;;;;;4994293;28;20050;-66
2022/03/02 01:02:23;;;;;;;34.95;23.15;;;5.40;99.90;;;;;;4994627;28;20100;-64
2022/03/02 01:04:49;;;;;;;37.10;23.70;;;5.40;99.90;;;;;;4996316;28;20050;-65
2022/03/02 01:07:15;;;;;;;35.15;22.58;;;5.30;99.90;;;;;;4994951;28;20112;-65
2022/03/02 01:09:40;;;;;;;35.95;24.02;;;5.40;99.90;;;;;;4995864;28;20058;-65
2022/03/02 01:12:06;;;;;;;35.38;23.63;;;5.30;99.90;;;;;;4993220;28;20502;-64
2022/03/02 01:14:31;;;;;;;34.83;22.23;;;5.30;99.90;;;;;;4996279;28;20038;-65
2022/03/02 01:16:57;;;;;;;34.95;24.38;;;5.30;99.90;;;;;;4994750;28;20129;-65
2022/03/02 01:19:23;;;;;;;41.58;23.80;;;5.30;99.90;;;;;;4978993;28;20061;-64
2022/03/02 01:21:48;;;;;;;36.13;23.73;;;5.30;99.90;;;;;;4979138;28;20112;-65
2022/03/02 01:24:14;;;;;;;38.38;24.15;;;5.30;99.90;;;;;;4976484;28;20129;-66
2022/03/02 01:26:40;;;;;;;34.17;23.25;;;5.20;99.90;;;;;;4989695;28;20128;-63
2022/03/02 01:29:05;;;;;;;33.50;23.33;;;5.20;99.90;;;;;;4995138;28;20070;-66
2022/03/02 01:31:31;;;;;;;38.20;23.67;;;5.20;99.90;;;;;;4993971;28;20483;-64
2022/03/02 01:33:57;;;;;;;35.38;24.35;;;5.20;99.90;;;;;;4994885;28;20046;-64
2022/03/02 01:36:23;;;;;;;33.78;23.50;;;5.20;99.90;;;;;;4994156;28;20100;-65
2022/03/02 01:38:49;;;;;;;38.20;24.17;;;5.20;99.90;;;;;;4994123;28;20053;-67
2022/03/02 01:41:17;;;;;;;37.33;23.55;;;5.20;99.90;;;;;;4993926;28;20050;-63
2022/03/02 01:43:44;;;;;;;35.45;24.50;;;5.10;99.90;;;;;;4992685;28;20153;-64
2022/03/02 01:46:10;;;;;;;36.20;23.85;;;5.20;99.90;;;;;;4994283;28;20531;-64
2022/03/02 01:48:36;;;;;;;37.13;24.88;;;5.20;99.90;;;;;;4993951;28;20122;-63
2022/03/02 01:51:02;;;;;;;35.00;23.30;;;5.20;99.90;;;;;;4994463;28;20268;-64
2022/03/02 01:53:28;;;;;;;33.60;23.80;;;5.10;99.90;;;;;;4993849;28;20060;-63
2022/03/02 01:55:55;;;;;;;38.63;24.88;;;5.20;99.90;;;;;;4995539;28;20046;-64
2022/03/02 01:58:21;;;;;;;38.83;25.10;;;5.10;99.90;;;;;;4992714;28;20044;-64
2022/03/02 02:00:46;;;;;;;36.28;24.67;;;5.10;99.90;;;;;;4993692;28;20335;-64
2022/03/02 02:03:12;;;;;;;35.00;24.48;;;5.10;99.90;;;;;;4993019;28;20057;-65
2022/03/02 02:05:38;;;;;;;37.20;23.02;;;5.10;99.90;;;;;;4993648;28;20035;-66
2022/03/02 02:08:03;;;;;;;37.95;25.10;;;5.00;99.90;;;;;;4993780;28;20074;-67
2022/03/02 02:10:29;;;;;;;44.75;24.02;;;5.00;99.90;;;;;;4993330;28;20188;-64
2022/03/02 02:12:55;;;;;;;33.35;22.33;;;5.00;99.90;;;;;;4994001;28;20042;-64
2022/03/02 02:15:21;;;;;;;35.78;23.30;;;5.00;99.90;;;;;;4992711;28;20050;-65
2022/03/02 02:17:47;;;;;;;35.42;23.73;;;5.00;99.90;;;;;;4993621;28;20370;-65
2022/03/02 02:20:13;;;;;;;36.17;23.92;;;5.00;99.90;;;;;;4993737;28;20093;-65
2022/03/02 02:22:43;;;;;;;38.55;24.17;;;5.00;99.90;;;;;;4993652;28;20053;-64
2022/03/02 02:25:10;;;;;;;36.55;24.83;;;5.00;99.90;;;;;;4993158;28;20046;-64
2022/03/02 02:27:36;;;;;;;41.75;24.58;;;4.90;99.90;;;;;;4992276;28;20061;-64
2022/03/02 02:30:05;;;;;;;35.75;24.52;;;4.90;99.90;;;;;;4993713;28;20050;-64
2022/03/02 02:32:30;;;;;;;36.67;23.60;;;4.90;99.90;;;;;;4993213;28;20046;-67
2022/03/02 02:34:57;;;;;;;40.75;24.27;;;4.90;99.90;;;;;;4992610;28;20420;-63
2022/03/02 02:37:25;;;;;;;35.53;23.88;;;4.80;99.90;;;;;;4980762;28;20046;-65
2022/03/02 02:40:01;;;;;;;36.95;24.17;;;4.80;99.90;;;;;;4973958;28;20058;-65
2022/03/02 02:42:27;;;;;;;38.55;24.08;;;4.80;99.90;;;;;;4973413;28;20534;-65
2022/03/02 02:44:54;;;;;;;39.42;23.90;;;4.80;99.90;;;;;;4974874;28;20512;-64
2022/03/02 02:47:20;;;;;;;36.78;23.98;;;4.80;99.90;;;;;;4974968;28;20064;-65
2022/03/02 02:49:46;;;;;;;39.25;25.63;;;4.80;99.90;;;;;;4989770;28;20129;-64
2022/03/02 02:52:12;;;;;;;37.10;23.67;;;4.80;99.90;;;;;;4993079;28;20137;-65
2022/03/02 02:54:37;;;;;;;37.03;23.63;;;4.80;99.90;;;;;;4993322;28;20054;-66
2022/03/02 02:57:04;;;;;;;38.53;24.52;;;4.80;99.90;;;;;;4992815;28;20122;-65
2022/03/02 02:59:30;;;;;;;43.17;25.00;;;4.80;99.90;;;;;;4992782;28;20116;-66
2022/03/02 03:01:56;;;;;;;39.97;25.20;;;4.80;99.90;;;;;;4992554;28;20550;-64
2022/03/02 03:04:22;;;;;;;38.28;24.38;;;4.80;99.90;;;;;;4992193;28;20050;-65
2022/03/02 03:06:48;;;;;;;38.33;24.27;;;4.80;99.90;;;;;;4993255;28;20044;-63
2022/03/02 03:09:16;;;;;;;39.05;24.13;;;4.80;99.90;;;;;;4992591;28;20467;-65
2022/03/02 03:11:42;;;;;;;42.75;25.08;;;4.80;99.90;;;;;;4993686;28;20089;-67
2022/03/02 03:14:13;;;;;;;37.95;23.60;;;4.80;99.90;;;;;;4992412;28;20086;-65
2022/03/02 03:16:40;;;;;;;37.13;24.83;;;4.80;99.90;;;;;;4992771;28;20121;-65
2022/03/02 03:19:06;;;;;;;39.03;24.70;;;4.80;99.90;;;;;;4991935;28;20108;-65
2022/03/02 03:21:32;;;;;;;40.45;25.70;;;4.70;99.90;;;;;;4992298;28;20050;-64
2022/03/02 03:23:57;;;;;;;39.50;25.50;;;4.70;99.90;;;;;;4992434;28;20364;-65
2022/03/02 03:26:23;;;;;;;37.38;24.90;;;4.70;99.90;;;;;;4991875;28;20766;-66
2022/03/02 03:28:49;;;;;;;39.05;24.40;;;4.70;99.90;;;;;;4992407;28;20061;-64
2022/03/02 03:31:14;;;;;;;40.05;24.80;;;4.70;99.90;;;;;;4993227;28;20108;-65
2022/03/02 03:33:40;;;;;;;38.17;25.27;;;4.70;99.90;;;;;;4991636;28;20049;-65
2022/03/02 03:36:06;;;;;;;39.17;25.30;;;4.70;99.90;;;;;;4992622;28;20089;-67
2022/03/02 03:38:31;;;;;;;35.45;23.23;;;4.60;99.90;;;;;;4991208;28;20053;-64
2022/03/02 03:40:57;;;;;;;40.67;25.80;;;4.60;99.90;;;;;;4985711;28;20341;-64
2022/03/02 03:43:22;;;;;;;41.15;25.52;;;4.60;99.90;;;;;;4968132;28;20050;-64
2022/03/02 03:45:49;;;;;;;40.10;25.13;;;4.60;99.90;;;;;;4992140;28;20042;-66
2022/03/02 03:48:15;;;;;;;42.67;26.20;;;4.60;99.90;;;;;;4991534;28;20042;-65
2022/03/02 03:50:42;;;;;;;44.10;26.77;;;4.50;99.90;;;;;;4993211;28;20046;-65
2022/03/02 03:53:08;;;;;;;42.65;26.60;;;4.60;99.90;;;;;;4993292;28;20054;-65
2022/03/02 03:55:34;;;;;;;39.95;25.38;;;4.50;99.90;;;;;;4991562;28;20046;-63
2022/03/02 03:58:00;;;;;;;40.95;26.50;;;4.50;99.90;;;;;;4991603;28;20050;-66
2022/03/02 04:00:25;;;;;;;41.13;26.00;;;4.50;99.90;;;;;;4992331;28;20375;-63
2022/03/02 04:02:51;;;;;;;43.08;26.88;;;4.50;99.90;;;;;;4991657;28;20042;-66
2022/03/02 04:05:17;;;;;;;43.75;27.08;;;4.50;99.90;;;;;;4991611;28;20049;-65
2022/03/02 04:07:44;;;;;;;41.42;26.88;;;4.50;99.90;;;;;;4990575;28;20046;-67
2022/03/02 04:10:10;;;;;;;39.47;25.42;;;4.50;99.90;;;;;;4991840;28;20125;-64
2022/03/02 04:12:36;;;;;;;39.45;25.23;;;4.50;99.90;;;;;;4991468;28;20358;-65
2022/03/02 04:15:04;;;;;;;43.00;26.65;;;4.50;99.90;;;;;;4992931;28;20050;-65
2022/03/02 04:17:30;;;;;;;41.90;26.15;;;4.40;99.90;;;;;;4991785;28;20089;-65
2022/03/02 04:19:55;;;;;;;41.75;25.58;;;4.40;99.90;;;;;;4992022;28;20082;-63
2022/03/02 04:22:21;;;;;;;41.78;25.60;;;4.40;99.90;;;;;;4991450;28;20327;-63
2022/03/02 04:24:47;;;;;;;40.05;25.10;;;4.40;99.90;;;;;;4992141;28;20104;-64
2022/03/02 04:27:13;;;;;;;44.58;27.80;;;4.40;99.90;;;;;;4993167;28;20467;-64
2022/03/02 04:29:39;;;;;;;39.97;25.75;;;4.30;99.90;;;;;;4996935;28;20046;-64
2022/03/02 04:32:05;;;;;;;45.42;26.98;;;4.30;99.90;;;;;;4995316;28;20050;-66
2022/03/02 04:34:31;;;;;;;45.03;26.48;;;4.30;99.90;;;;;;4995556;28;20077;-65
2022/03/02 04:36:56;;;;;;;42.50;27.90;;;4.30;99.90;;;;;;4979125;28;20046;-65
2022/03/02 04:39:22;;;;;;;43.78;27.20;;;4.30;99.90;;;;;;4995333;28;20054;-64
2022/03/02 04:41:48;;;;;;;41.65;27.27;;;4.30;99.90;;;;;;4994468;28;20133;-65
2022/03/02 04:44:14;;;;;;;41.55;25.67;;;4.20;99.90;;;;;;4995627;28;20062;-64
2022/03/02 04:46:39;;;;;;;41.17;25.33;;;4.20;99.90;;;;;;4995194;28;20442;-64
2022/03/02 04:49:11;;;;;;;47.00;27.58;;;4.20;99.90;;;;;;4995744;28;20051;-64
2022/03/02 04:51:37;;;;;;;43.30;27.40;;;4.20;99.90;;;;;;4994206;28;20042;-65
2022/03/02 04:54:04;;;;;;;46.20;27.38;;;4.20;99.90;;;;;;4994742;28;20054;-65
2022/03/02 04:56:29;;;;;;;40.55;27.05;;;4.10;99.90;;;;;;4994223;28;20065;-64
2022/03/02 04:58:55;;;;;;;42.65;27.20;;;4.10;99.90;;;;;;4994965;28;20054;-66
2022/03/02 05:01:20;;;;;;;43.08;27.35;;;4.10;99.90;;;;;;4994798;28;20073;-64
2022/03/02 05:03:46;;;;;;;42.13;25.95;;;4.10;99.90;;;;;;4994610;28;20058;-68
2022/03/02 05:06:12;;;;;;;41.28;25.73;;;4.00;99.90;;;;;;4994277;28;20038;-65
2022/03/02 05:08:37;;;;;;;45.97;27.05;;;4.00;99.90;;;;;;4994433;28;20049;-64
2022/03/02 05:11:03;;;;;;;45.70;28.13;;;4.00;99.90;;;;;;4994505;28;20051;-64
2022/03/02 05:13:29;;;;;;;43.05;26.65;;;4.00;99.90;;;;;;4994279;28;20070;-64
2022/03/02 05:15:55;;;;;;;42.88;26.83;;;4.00;99.90;;;;;;4995087;28;20117;-65
2022/03/02 05:18:20;;;;;;;45.35;27.08;;;4.00;99.90;;;;;;4978627;28;20582;-65
2022/03/02 05:20:46;;;;;;;41.90;26.48;;;4.00;99.90;;;;;;4991900;28;20475;-66
2022/03/02 05:23:12;;;;;;;42.63;26.95;;;4.00;99.90;;;;;;4985806;28;20051;-65
2022/03/02 05:25:38;;;;;;;44.15;26.38;;;4.00;99.90;;;;;;4983218;28;20039;-64
2022/03/02 05:28:03;;;;;;;41.08;26.10;;;4.00;99.90;;;;;;4970490;28;20038;-65
2022/03/02 05:30:29;;;;;;;42.38;26.42;;;4.00;99.90;;;;;;4982495;28;20427;-65
2022/03/02 05:32:55;;;;;;;41.83;27.60;;;4.00;99.90;;;;;;4976445;28;20050;-65
2022/03/02 05:35:20;;;;;;;41.92;27.40;;;3.90;99.90;;;;;;4975865;28;20082;-66
2022/03/02 05:37:46;;;;;;;43.72;27.40;;;3.90;99.90;;;;;;4994260;28;20057;-66
2022/03/02 05:40:15;;;;;;;42.55;26.20;;;4.00;99.90;;;;;;4994117;28;20050;-67
2022/03/02 05:42:42;;;;;;;42.55;26.05;;;3.90;99.90;;;;;;4994429;28;20050;-64
2022/03/02 05:45:09;;;;;;;43.95;26.85;;;3.90;99.90;;;;;;4995439;28;20181;-63
2022/03/02 05:47:35;;;;;;;43.22;27.38;;;3.90;99.90;;;;;;4995273;28;20406;-65
2022/03/02 05:50:00;;;;;;;45.60;27.23;;;3.90;99.90;;;;;;4994254;28;20065;-64
2022/03/02 05:52:26;;;;;;;39.75;25.35;;;3.90;99.90;;;;;;4993962;28;20080;-66
2022/03/02 05:54:52;;;;;;;43.35;27.60;;;3.90;99.90;;;;;;4994160;28;20042;-65
2022/03/02 05:57:18;;;;;;;40.95;26.25;;;3.90;99.90;;;;;;4993985;28;20043;-65
2022/03/02 05:59:44;;;;;;;41.88;25.92;;;3.90;99.90;;;;;;4993818;28;20360;-63
2022/03/02 06:02:09;;;;;;;42.45;26.80;;;3.90;99.90;;;;;;4983622;28;20146;-65
2022/03/02 06:04:35;;;;;;;45.60;27.27;;;3.80;99.90;;;;;;4985584;28;20051;-65
2022/03/02 06:07:01;;;;;;;43.53;26.38;;;3.80;99.90;;;;;;4985859;28;20419;-65
2022/03/02 06:09:27;;;;;;;45.10;27.13;;;3.70;99.90;;;;;;4985548;28;20497;-64
2022/03/02 06:11:53;;;;;;;42.95;27.30;;;3.70;99.90;;;;;;4985634;28;20046;-64
2022/03/02 06:14:19;;;;;;;45.17;27.30;;;3.70;99.90;;;;;;4984226;28;20500;-63
2022/03/02 06:16:45;;;;;;;42.80;25.42;;;3.60;99.90;;;;;;5001588;28;20128;-67
2022/03/02 06:19:12;;;;;;;41.15;25.88;;;3.60;99.90;;;;;;4993886;28;20049;-64
2022/03/02 06:21:40;;;;;;;43.40;26.63;;;3.50;99.90;;;;;;4993589;28;20053;-65
2022/03/02 06:24:06;;;;;;;44.83;27.30;;;3.50;99.90;;;;;;4993609;28;20050;-65
2022/03/02 06:26:32;;;;;;;43.67;26.55;;;3.40;99.90;;;;;;4992772;28;20061;-66
2022/03/02 06:28:58;;;;;;;41.33;26.02;;;3.40;99.90;;;;;;4993474;28;20050;-64
2022/03/02 06:31:24;;;;;;;44.67;27.15;;;3.40;99.90;;;;;;4993129;28;20061;-63
2022/03/02 06:33:49;;;;;;;40.67;26.88;;;3.30;99.90;;;;;;4993798;28;20433;-63
2022/03/02 06:36:15;;;;;;;44.30;25.67;;;3.30;99.90;;;;;;4993444;28;20391;-64
2022/03/02 06:38:41;;;;;;;43.85;26.42;;;3.20;99.90;;;;;;4993570;28;20386;-64
2022/03/02 06:41:25;;;;;;;44.03;26.40;;;3.20;99.90;;;;;;4992829;28;20498;-63
2022/03/02 06:44:07;;;;;;;48.67;26.63;;;3.20;99.90;;;;;;4990433;28;20047;-64
2022/03/02 06:46:55;;;;;;;45.17;27.55;;;3.10;99.90;;;;;;4992978;28;20065;-64
2022/03/02 06:49:29;;;;;;;46.38;27.48;;;3.10;99.90;;;;;;4985854;28;20543;-64
2022/03/02 06:51:59;;;;;;;44.40;26.63;;;3.00;99.90;;;;;;4992031;28;20113;-64
2022/03/02 06:54:29;;;;;;;46.78;27.75;;;3.00;99.90;;;;;;4989915;28;20050;-65
2022/03/02 06:56:57;;;;;;;45.20;27.58;;;3.00;99.90;;;;;;4962825;28;20145;-66
2022/03/02 06:59:44;;;;;;;42.65;26.55;;;3.00;99.90;;;;;;4981440;28;20126;-64
2022/03/02 07:02:12;;;;;;;44.90;26.05;;;3.00;99.90;;;;;;4983210;28;20049;-65
2022/03/02 07:04:40;;;;;;;45.80;26.58;;;2.90;99.90;;;;;;4984267;28;20047;-66
2022/03/02 07:07:07;;;;;;;44.63;26.80;;;2.90;99.90;;;;;;4968552;28;20069;-65
2022/03/02 07:09:34;;;;;;;41.08;25.52;;;2.90;99.90;;;;;;4984165;28;20146;-65
2022/03/02 07:12:05;;;;;;;42.97;27.38;;;2.90;99.90;;;;;;4983143;28;20063;-64
2022/03/02 07:14:33;;;;;;;45.10;27.05;;;2.90;99.90;;;;;;4982376;28;20073;-65
2022/03/02 07:17:01;;;;;;;46.30;27.42;;;2.80;99.90;;;;;;4982806;28;20081;-66
2022/03/02 07:19:27;;;;;;;44.90;27.58;;;2.80;99.90;;;;;;4983356;28;20047;-66
2022/03/02 07:21:55;;;;;;;43.83;26.63;;;2.80;99.90;;;;;;4984404;28;20054;-66
2022/03/02 07:24:25;;;;;;;44.42;27.00;;;2.80;99.90;;;;;;4964336;28;20125;-66
2022/03/02 07:26:56;;;;;;;44.03;25.83;;;2.80;99.90;;;;;;4989198;28;20054;-63
2022/03/02 07:29:23;;;;;;;44.70;26.23;;;2.80;99.90;;;;;;4991696;28;20069;-64
2022/03/02 07:31:51;;;;;;;46.67;27.55;;;2.70;99.90;;;;;;4979406;28;20407;-67
2022/03/02 07:34:17;;;;;;;44.33;26.35;;;2.80;99.90;;;;;;4981249;28;20046;-65
2022/03/02 07:36:43;;;;;;;46.65;26.73;;;2.80;99.90;;;;;;4973045;28;20114;-65
2022/03/02 07:39:10;;;;;;;44.58;27.20;;;2.80;99.90;;;;;;4972852;28;20514;-65
2022/03/02 07:41:36;;;;;;;46.97;27.08;;;2.70;99.90;;;;;;4974099;28;20391;-64
2022/03/02 07:44:02;;;;;;;46.42;27.85;;;2.80;99.90;;;;;;4980397;28;20034;-65
2022/03/02 07:46:29;;;;;;;43.33;27.60;;;2.80;99.90;;;;;;4989595;28;20046;-65
2022/03/02 07:48:57;;;;;;;47.42;27.20;;;2.80;99.90;;;;;;4990514;28;20057;-66
2022/03/02 07:51:24;;;;;;;44.25;26.63;;;2.80;99.90;;;;;;4987094;28;20557;-65
2022/03/02 07:53:55;;;;;;;46.63;28.00;;;2.80;99.90;;;;;;4990305;28;20078;-64
2022/03/02 07:56:22;;;;;;;46.50;27.38;;;2.80;99.90;;;;;;4989437;28;20301;-66
2022/03/02 07:58:48;;;;;;;44.28;26.00;;;2.90;99.90;;;;;;4987489;28;20383;-66
2022/03/02 08:01:16;;;;;;;45.95;27.65;;;3.00;99.90;;;;;;4986264;28;20056;-65
2022/03/02 08:03:43;;;;;;;44.92;26.75;;;3.00;99.90;;;;;;4979250;28;20038;-65
2022/03/02 08:06:09;;;;;;;45.63;27.27;;;3.10;99.90;;;;;;4995192;28;20053;-65
2022/03/02 08:08:35;;;;;;;46.63;26.25;;;3.20;99.90;;;;;;4995820;28;20065;-63
2022/03/02 08:11:02;;;;;;;39.42;25.67;;;3.20;99.90;;;;;;4997405;28;20042;-67
2022/03/02 08:13:34;;;;;;;41.33;25.90;;;3.30;99.90;;;;;;4995582;28;20046;-65
2022/03/02 08:16:00;;;;;;;47.10;27.03;;;3.50;99.90;;;;;;4996136;28;20058;-64
2022/03/02 08:18:27;;;;;;;42.30;26.48;;;3.60;99.90;;;;;;4982224;28;20622;-65
2022/03/02 08:20:54;;;;;;;45.13;27.25;;;3.70;99.90;;;;;;4982716;28;20157;-65
2022/03/02 08:23:23;;;;;;;40.13;24.77;;;3.80;99.90;;;;;;4975509;28;20066;-68
2022/03/02 08:25:52;;;;;;;38.83;24.80;;;3.90;99.90;;;;;;4974261;28;20054;-64
2022/03/02 08:28:19;;;;;;;40.97;24.90;;;4.00;99.90;;;;;;4976307;28;20387;-65
2022/03/02 08:30:48;;;;;;;37.20;24.50;;;4.20;99.90;;;;;;4977271;28;20506;-64
2022/03/02 08:33:19;;;;;;;40.78;25.63;;;4.30;99.90;;;;;;4976262;28;20062;-65
2022/03/02 08:35:46;;;;;;;41.45;25.17;;;4.40;99.90;;;;;;4983754;28;20058;-64
2022/03/02 08:38:12;;;;;;;39.53;24.02;;;4.60;99.90;;;;;;4984510;28;20054;-66
2022/03/02 08:40:38;;;;;;;34.88;23.60;;;4.70;99.90;;;;;;4986406;28;20046;-64
2022/03/02 08:43:05;;;;;;;37.80;24.75;;;4.70;99.90;;;;;;4986140;28;20380;-69
2022/03/02 08:45:31;;;;;;;39.45;25.20;;;4.80;99.90;;;;;;4983535;28;20057;-64
2022/03/02 08:48:00;;;;;;;35.30;24.40;;;4.90;99.90;;;;;;4976064;28;20053;-65
2022/03/02 08:50:26;;;;;;;35.38;23.45;;;5.00;99.90;;;;;;4975757;28;20046;-66
2022/03/02 08:52:54;;;;;;;39.67;24.88;;;5.10;99.90;;;;;;4993185;28;20046;-67
2022/03/02 08:55:20;;;;;;;35.55;23.15;;;5.20;99.90;;;;;;4995710;28;20051;-64
2022/03/02 08:57:46;;;;;;;38.80;24.80;;;5.30;99.90;;;;;;4993883;28;20042;-64
2022/03/02 09:00:15;;;;;;;37.78;23.10;;;5.40;99.90;;;;;;4986711;28;20038;-66
2022/03/02 09:02:42;;;;;;;33.50;22.92;;;5.50;99.90;;;;;;4986142;28;20121;-65
2022/03/02 09:05:09;;;;;;;34.35;22.40;;;5.60;99.90;;;;;;4979436;28;20054;-66
2022/03/02 09:07:35;;;;;;;39.38;22.85;;;5.70;99.90;;;;;;4976805;28;20050;-65
2022/03/02 09:10:01;;;;;;;35.28;24.08;;;5.80;99.90;;;;;;4975684;28;20069;-65
2022/03/02 09:12:27;;;;;;;34.53;22.58;;;5.70;99.90;;;;;;4989762;28;20058;-64
2022/03/02 09:14:54;;;;;;;31.92;22.05;;;6.00;99.90;;;;;;4993963;28;20047;-65
2022/03/02 09:17:25;;;;;;;33.45;22.33;;;5.90;99.90;;;;;;4993513;28;20375;-64
2022/03/02 09:19:55;;;;;;;35.15;22.35;;;6.10;99.90;;;;;;4990130;28;20050;-66
2022/03/02 09:22:23;;;;;;;33.42;21.58;;;6.10;99.90;;;;;;4991702;28;20051;-65
2022/03/02 09:24:48;;;;;;;34.70;22.27;;;6.20;99.90;;;;;;4970390;28;20046;-65
2022/03/02 09:27:17;;;;;;;36.42;23.75;;;6.30;99.90;;;;;;4992269;28;20173;-65
2022/03/02 09:29:46;;;;;;;34.45;22.38;;;6.40;99.90;;;;;;4994056;28;20042;-66
2022/03/02 09:32:13;;;;;;;29.98;21.60;;;6.50;99.90;;;;;;4995058;28;20121;-66
2022/03/02 09:34:44;;;;;;;30.55;21.25;;;6.50;99.90;;;;;;4995081;28;20046;-66
2022/03/02 09:37:12;;;;;;;31.58;22.95;;;6.60;99.90;;;;;;4995477;28;20065;-68
2022/03/02 09:39:38;;;;;;;33.90;22.58;;;6.80;99.90;;;;;;4994638;28;20054;-67
2022/03/02 09:42:10;;;;;;;31.20;21.38;;;6.80;99.90;;;;;;4995157;28;20050;-66
2022/03/02 09:44:45;;;;;;;31.40;22.63;;;7.00;99.90;;;;;;4994433;28;20423;-64
2022/03/02 09:47:19;;;;;;;29.40;20.60;;;7.20;99.90;;;;;;4993736;28;20120;-67
2022/03/02 09:49:52;;;;;;;30.35;21.42;;;7.10;99.90;;;;;;4995899;28;20067;-67
2022/03/02 09:52:20;;;;;;;30.48;20.85;;;7.30;99.90;;;;;;4993426;28;20069;-67
2022/03/02 09:54:50;;;;;;;29.65;19.95;;;7.30;99.90;;;;;;4995697;28;20064;-64
2022/03/02 09:57:18;;;;;;;33.15;22.45;;;7.30;99.90;;;;;;4991778;28;20559;-65
2022/03/02 09:59:49;;;;;;;29.80;19.88;;;7.30;99.90;;;;;;4993876;28;20434;-66
2022/03/02 10:02:26;;;;;;;28.95;20.98;;;7.30;99.90;;;;;;4994185;28;20050;-66
2022/03/02 10:04:53;;;;;;;31.58;21.02;;;7.30;99.90;;;;;;4994643;28;20045;-67
2022/03/02 10:07:28;;;;;;;29.30;19.73;;;7.40;99.90;;;;;;4991035;28;20077;-66
2022/03/02 10:10:13;;;;;;;28.83;19.85;;;7.50;99.90;;;;;;4992902;28;20440;-66
2022/03/02 10:12:39;;;;;;;31.02;19.63;;;7.70;99.90;;;;;;4993361;28;20053;-64
2022/03/02 10:15:15;;;;;;;29.88;20.75;;;7.80;99.90;;;;;;4977722;28;20047;-66
2022/03/02 10:17:43;;;;;;;27.85;19.75;;;7.90;99.90;;;;;;4976114;28;20051;-65
2022/03/02 10:20:19;;;;;;;28.52;19.27;;;8.00;99.90;;;;;;4989849;28;20065;-66
2022/03/02 10:23:11;;;;;;;28.13;19.70;;;8.00;99.90;;;;;;4991631;28;20058;-65
2022/03/02 10:26:02;;;;;;;27.45;18.98;;;8.10;99.90;;;;;;4990527;28;20085;-65
2022/03/02 10:28:37;;;;;;;29.10;18.85;;;8.20;99.90;;;;;;4976215;28;20046;-66
2022/03/02 10:31:15;;;;;;;24.60;16.48;;;8.30;99.90;;;;;;4970984;28;20042;-68
2022/03/02 10:33:47;;;;;;;25.33;17.25;;;8.40;99.90;;;;;;4974181;28;20121;-66
2022/03/02 10:36:13;;;;;;;26.45;17.60;;;8.50;99.90;;;;;;4976306;28;20046;-66
2022/03/02 10:38:38;;;;;;;25.75;18.15;;;8.60;99.90;;;;;;4987883;28;20117;-65
2022/03/02 10:41:08;;;;;;;27.52;16.90;;;8.70;99.90;;;;;;4978049;28;20108;-65
2022/03/02 10:44:04;;;;;;;23.40;16.30;;;8.80;99.90;;;;;;4987833;28;20054;-66
2022/03/02 10:46:30;;;;;;;23.48;16.05;;;8.90;99.90;;;;;;4976222;28;20054;-66
2022/03/02 10:49:02;;;;;;;25.88;15.60;;;8.90;99.90;;;;;;4993280;28;20104;-66
2022/03/02 10:51:30;;;;;;;24.08;15.52;;;9.00;99.90;;;;;;4976956;28;20383;-66
2022/03/02 10:53:56;;;;;;;23.95;16.42;;;9.20;99.90;;;;;;4993081;28;20058;-64
2022/03/02 10:56:26;;;;;;;22.73;15.43;;;9.20;99.90;;;;;;4964323;28;20047;-66
2022/03/02 10:58:53;;;;;;;24.10;15.63;;;9.30;98.70;;;;;;4987538;28;20054;-66
2022/03/02 11:01:19;;;;;;;23.55;15.98;;;9.30;99.50;;;;;;4993443;28;20050;-66
2022/03/02 11:03:45;;;;;;;21.52;14.95;;;9.30;99.90;;;;;;4992347;28;20364;-66
2022/03/02 11:06:11;;;;;;;23.83;15.77;;;9.40;99.20;;;;;;4976165;28;20042;-66
2022/03/02 11:08:38;;;;;;;22.25;15.02;;;9.50;98.60;;;;;;4986587;28;20050;-67
2022/03/02 11:11:06;;;;;;;26.45;14.70;;;9.60;98.60;;;;;;4984893;28;20046;-67
2022/03/02 11:13:32;;;;;;;24.70;15.70;;;9.60;92.90;;;;;;4992696;28;20050;-64
2022/03/02 11:16:00;;;;;;;22.10;14.70;;;9.70;87.00;;;;;;4984495;28;20376;-66
2022/03/02 11:18:35;;;;;;;23.48;15.57;;;9.70;89.60;;;;;;4983959;28;20038;-65
2022/03/02 11:21:10;;;;;;;25.48;17.05;;;9.70;79.10;;;;;;4982933;28;20046;-67
2022/03/02 11:23:45;;;;;;;24.90;15.88;;;9.80;90.70;;;;;;4991197;28;20054;-65
2022/03/02 11:26:16;;;;;;;26.75;16.45;;;9.80;87.40;;;;;;4972791;28;20482;-65
2022/03/02 11:28:48;;;;;;;23.80;15.82;;;10.60;85.70;;;;;;4987151;28;20054;-65
2022/03/02 11:31:21;;;;;;;20.90;14.90;;;9.80;79.80;;;;;;4977184;28;20058;-65
2022/03/02 11:33:47;;;;;;;24.13;15.55;;;9.90;81.30;;;;;;4991367;28;20042;-68
2022/03/02 11:36:19;;;;;;;22.77;15.38;;;10.00;85.60;;;;;;4972958;28;20039;-67
2022/03/02 11:38:52;;;;;;;22.40;15.75;;;10.10;84.20;;;;;;4974331;28;20154;-66
2022/03/02 11:41:18;;;;;;;22.80;15.77;;;10.10;84.60;;;;;;4988650;28;20042;-66
2022/03/02 11:43:43;;;;;;;21.77;15.52;;;10.10;82.60;;;;;;4992479;28;20105;-64
2022/03/02 11:46:10;;;;;;;23.65;16.55;;;10.20;89.80;;;;;;4992414;28;20046;-65
2022/03/02 11:48:39;;;;;;;23.02;17.10;;;10.30;91.20;;;;;;4992301;28;20466;-67
2022/03/02 11:51:11;;;;;;;23.85;16.92;;;10.20;91.50;;;;;;4991461;28;20050;-67
2022/03/02 11:53:41;;;;;;;;;;;10.10;90.20;;;;;;4993455;28;20038;-66
2022/03/02 11:56:09;;;;;;;22.55;16.05;;;10.00;78.20;;;;;;4991764;28;20389;-65
2022/03/02 11:58:57;;;;;;;25.27;16.70;;;10.00;95.20;;;;;;4992158;28;20042;-68
2022/03/02 12:01:25;;;;;;;22.70;16.20;;;10.00;93.30;;;;;;4988757;28;20481;-65
2022/03/02 12:04:03;;;;;;;24.35;17.10;;;10.00;95.60;;;;;;4991024;28;20136;-64
2022/03/02 12:06:37;;;;;;;23.85;16.70;;;10.00;92.50;;;;;;4960852;28;20061;-65
2022/03/02 12:09:04;;;;;;;24.20;16.25;;;10.00;96.00;;;;;;4985849;28;20046;-66
2022/03/02 12:11:38;;;;;;;26.80;17.23;;;10.10;90.80;;;;;;4992139;28;20057;-66
2022/03/02 12:14:09;;;;;;;24.27;17.00;;;10.10;89.70;;;;;;4991932;28;20053;-65
2022/03/02 12:16:47;;;;;;;24.45;16.30;;;10.20;90.10;;;;;;4993035;28;20053;-68
2022/03/02 12:19:22;;;;;;;23.00;16.33;;;10.20;88.80;;;;;;4977726;28;20376;-69
2022/03/02 12:21:49;;;;;;;23.27;17.10;;;10.20;81.90;;;;;;4972292;28;20108;-64
2022/03/02 12:24:33;;;;;;;22.67;16.17;;;10.20;86.60;;;;;;4972621;28;20047;-65
2022/03/02 12:27:01;;;;;;;23.63;16.77;;;10.30;85.50;;;;;;4972049;28;20051;-66
2022/03/02 12:29:27;;;;;;;24.25;17.02;;;10.30;84.50;;;;;;4982044;28;20046;-69
2022/03/02 12:32:05;;;;;;;20.48;15.73;;;10.30;83.30;;;;;;4988797;28;20047;-67
2022/03/02 12:34:36;;;;;;;23.08;16.48;;;10.30;80.10;;;;;;4983022;28;20533;-68
2022/03/02 12:37:03;;;;;;;24.43;16.40;;;10.20;80.70;;;;;;4989014;28;20054;-66
2022/03/02 12:39:30;;;;;;;24.30;17.02;;;10.30;81.50;;;;;;4978122;28;20357;-67